createdAt,value
2023-02-04T00:02:35.525Z,85.18
2023-02-04T00:05:37.485Z,83.95
2023-02-04T00:08:39.482Z,84.11
2023-02-04T00:11:41.426Z,85.04
2023-02-04T00:14:43.338Z,84.41
2023-02-04T00:17:45.227Z,84.29
2023-02-04T00:20:47.130Z,83.66
2023-02-04T00:23:51.169Z,83.67
2023-02-04T00:26:53.015Z,83.97
2023-02-04T00:29:54.981Z,83.05
2023-02-04T00:32:57.037Z,83.25
2023-02-04T00:35:59.105Z,82.90
2023-02-04T00:39:01.011Z,82.68
2023-02-04T00:42:03.450Z,82.68
2023-02-04T00:45:05.577Z,83.40
2023-02-04T00:48:07.498Z,83.23
2023-02-04T00:51:09.409Z,83.10
2023-02-04T00:54:13.798Z,82.44
2023-02-04T00:57:15.747Z,83.23
2023-02-04T01:00:18.309Z,82.27
2023-02-04T01:03:20.373Z,82.34
2023-02-04T01:06:22.499Z,83.19
2023-02-04T01:09:24.723Z,83.27
2023-02-04T01:12:27.488Z,81.79
2023-02-04T01:15:29.787Z,82.40
2023-02-04T01:18:31.658Z,81.15
2023-02-04T01:21:33.529Z,81.80
2023-02-04T01:24:35.374Z,81.82
2023-02-04T01:27:55.905Z,81.21
2023-02-04T01:30:58.092Z,80.96
2023-02-04T01:34:01.386Z,81.46
2023-02-04T01:37:03.245Z,81.79
2023-02-04T01:40:06.067Z,81.90
2023-02-04T01:43:11.053Z,81.30
2023-02-04T01:46:13.341Z,81.78
2023-02-04T01:49:15.578Z,81.29
2023-02-04T01:52:18.022Z,81.46
2023-02-04T01:55:24.037Z,80.77
2023-02-04T01:58:26.156Z,81.36
2023-02-04T02:01:44.748Z,82.02
2023-02-04T02:04:46.679Z,82.12
2023-02-04T02:07:50.063Z,82.32
2023-02-04T02:10:52.978Z,81.78
2023-02-04T02:13:55.289Z,82.12
2023-02-04T02:16:57.484Z,82.69
2023-02-04T02:19:59.682Z,83.05
2023-02-04T02:23:11.529Z,82.71
2023-02-04T02:26:15.110Z,82.98
2023-02-04T02:29:17.078Z,83.41
2023-02-04T02:32:19.449Z,84.21
2023-02-04T02:35:21.636Z,85.05
2023-02-04T02:38:24.738Z,86.98
2023-02-04T02:41:26.719Z,87.72
2023-02-04T02:44:29.792Z,86.91
2023-02-04T02:47:32.818Z,86.47
2023-02-04T02:50:34.814Z,86.21
2023-02-04T02:53:36.835Z,86.00
2023-02-04T02:56:38.994Z,85.45
2023-02-04T02:59:42.538Z,85.59
2023-02-04T03:02:45.992Z,85.50
2023-02-04T03:05:52.350Z,85.87
2023-02-04T03:08:56.938Z,85.80
2023-02-04T03:11:58.949Z,85.22
2023-02-04T03:15:00.837Z,84.76
2023-02-04T03:18:03.334Z,86.26
2023-02-04T03:21:06.805Z,86.11
2023-02-04T03:24:09.471Z,86.53
2023-02-04T03:27:15.033Z,86.82
2023-02-04T03:30:17.260Z,87.21
2023-02-04T03:33:19.213Z,87.62
2023-02-04T03:36:21.059Z,88.54
2023-02-04T03:39:23.076Z,88.71
2023-02-04T03:42:25.726Z,88.35
2023-02-04T03:45:32.398Z,88.16
2023-02-04T03:48:36.819Z,87.64
2023-02-04T03:51:38.677Z,86.92
2023-02-04T03:54:40.566Z,86.22
2023-02-04T03:57:42.442Z,86.27
2023-02-04T04:00:44.450Z,86.69
2023-02-04T04:03:46.410Z,87.66
2023-02-04T04:06:48.298Z,88.22
2023-02-04T04:09:50.220Z,88.17
2023-02-04T04:12:52.095Z,88.07
2023-02-04T04:15:53.970Z,88.45
2023-02-04T04:18:56.227Z,87.78
2023-02-04T04:21:58.086Z,88.19
2023-02-04T04:24:59.962Z,87.12
2023-02-04T04:28:01.922Z,86.13
2023-02-04T04:31:04.359Z,85.90
2023-02-04T04:34:06.359Z,85.77
2023-02-04T04:37:08.609Z,85.66
2023-02-04T04:40:12.730Z,85.00
2023-02-04T04:43:14.729Z,87.33
2023-02-04T04:46:16.667Z,86.95
2023-02-04T04:49:18.967Z,87.44
2023-02-04T04:52:20.806Z,86.79
2023-02-04T04:55:22.667Z,86.88
2023-02-04T04:58:24.582Z,87.04
2023-02-04T05:01:26.474Z,86.62
2023-02-04T05:04:28.376Z,85.75
2023-02-04T05:07:30.251Z,87.47
2023-02-04T05:10:32.504Z,87.69
2023-02-04T05:13:34.744Z,87.36
2023-02-04T05:16:36.714Z,87.04
2023-02-04T05:19:38.697Z,87.74
2023-02-04T05:22:40.498Z,87.40
2023-02-04T05:25:42.435Z,87.49
2023-02-04T05:28:44.361Z,87.46
2023-02-04T05:31:46.456Z,87.31
2023-02-04T05:34:48.337Z,86.98
2023-02-04T05:37:50.361Z,86.30
2023-02-04T05:40:52.297Z,87.10
2023-02-04T05:43:54.146Z,87.09
2023-02-04T05:46:56.142Z,86.85
2023-02-04T05:49:58.020Z,87.08
2023-02-04T05:52:59.964Z,87.58
2023-02-04T05:56:02.337Z,87.17
2023-02-04T05:59:36.375Z,87.40
2023-02-04T06:02:38.296Z,87.07
2023-02-04T06:05:40.624Z,87.27
2023-02-04T06:08:42.549Z,86.78
2023-02-04T06:11:44.347Z,86.25
2023-02-04T06:14:46.230Z,86.67
2023-02-04T06:17:48.146Z,86.28
2023-02-04T06:20:49.993Z,86.59
2023-02-04T06:23:51.890Z,86.61
2023-02-04T06:26:53.717Z,86.60
2023-02-04T06:29:55.595Z,86.08
2023-02-04T06:32:57.603Z,86.08
2023-02-04T06:35:59.456Z,85.95
2023-02-04T06:39:01.369Z,85.06
2023-02-04T06:42:03.228Z,85.52
2023-02-04T06:45:05.715Z,85.96
2023-02-04T06:48:07.636Z,85.63
2023-02-04T06:51:09.631Z,86.96
2023-02-04T06:54:11.492Z,85.50
2023-02-04T06:57:13.359Z,86.19
2023-02-04T07:00:15.630Z,86.17
2023-02-04T07:03:17.509Z,85.93
2023-02-04T07:06:19.494Z,86.66
2023-02-04T07:09:21.627Z,86.66
2023-02-04T07:12:23.709Z,88.48
2023-02-04T07:15:25.828Z,88.56
2023-02-04T07:18:27.725Z,88.36
2023-02-04T07:21:29.894Z,89.16
2023-02-04T07:24:31.780Z,89.02
2023-02-04T07:27:33.717Z,88.61
2023-02-04T07:30:40.722Z,89.01
2023-02-04T07:33:42.685Z,89.22
2023-02-04T07:36:44.857Z,88.52
2023-02-04T07:39:46.839Z,88.87
2023-02-04T07:42:48.719Z,88.11
2023-02-04T07:45:53.405Z,87.67
2023-02-04T07:48:55.690Z,88.36
2023-02-04T07:51:58.147Z,87.32
2023-02-04T07:55:00.004Z,88.27
2023-02-04T07:58:02.094Z,88.06
2023-02-04T08:01:04.240Z,88.55
2023-02-04T08:04:06.099Z,88.73
2023-02-04T08:07:08.183Z,88.92
2023-02-04T08:10:11.162Z,88.62
2023-02-04T08:13:13.200Z,88.64
2023-02-04T08:16:15.006Z,88.48
2023-02-04T08:19:19.200Z,87.72
2023-02-04T08:22:21.041Z,86.75
2023-02-04T08:25:23.171Z,87.73
2023-02-04T08:28:25.370Z,87.32
2023-02-04T08:31:27.359Z,87.18
2023-02-04T08:34:29.548Z,87.52
2023-02-04T08:37:31.404Z,87.05
2023-02-04T08:40:34.841Z,88.66
2023-02-04T08:43:37.191Z,88.55
2023-02-04T08:47:18.890Z,86.91
2023-02-04T08:51:20.674Z,87.35
2023-02-04T08:55:22.302Z,85.39
2023-02-04T08:58:45.151Z,84.44
2023-02-04T09:01:50.990Z,84.12
2023-02-04T09:04:53.792Z,81.12
2023-02-04T09:07:55.667Z,80.25
2023-02-04T09:10:57.626Z,80.00
2023-02-04T09:13:59.585Z,76.43
2023-02-04T09:17:01.592Z,73.97
2023-02-04T09:20:04.442Z,72.33
2023-02-04T09:23:10.614Z,71.41
2023-02-04T09:26:13.394Z,72.70
2023-02-04T09:29:15.783Z,72.83
2023-02-04T09:32:19.363Z,73.07
2023-02-04T09:35:21.281Z,72.79
2023-02-04T09:38:24.279Z,68.69
2023-02-04T09:41:26.710Z,65.00
2023-02-04T09:44:29.311Z,66.96
2023-02-04T09:47:31.413Z,66.35
2023-02-04T09:50:34.344Z,67.75
2023-02-04T09:53:37.354Z,67.57
2023-02-04T09:56:39.819Z,67.52
2023-02-04T09:59:43.776Z,68.10
2023-02-04T10:02:46.060Z,67.14
2023-02-04T10:05:49.157Z,68.09
2023-02-04T10:08:52.091Z,66.46
2023-02-04T10:11:54.070Z,64.30
2023-02-04T10:14:56.070Z,65.27
2023-02-04T10:18:03.580Z,63.41
2023-02-04T10:21:36.715Z,65.95
2023-02-04T10:24:38.638Z,64.86
2023-02-04T10:27:57.620Z,64.74
2023-02-04T10:31:00.127Z,63.55
2023-02-04T10:34:32.923Z,63.27
2023-02-04T10:37:34.820Z,64.60
2023-02-04T10:40:37.175Z,64.57
2023-02-04T10:43:39.305Z,63.47
2023-02-04T10:46:48.529Z,62.75
2023-02-04T10:50:15.761Z,63.51
2023-02-04T10:53:41.373Z,63.95
2023-02-04T10:56:43.622Z,65.75
2023-02-04T10:59:48.164Z,64.13
2023-02-04T11:03:07.395Z,62.46
2023-02-04T11:06:16.386Z,63.20
2023-02-04T11:09:19.089Z,61.89
2023-02-04T11:12:47.954Z,62.41
2023-02-04T11:16:16.476Z,61.67
2023-02-04T11:19:32.825Z,61.40
2023-02-04T11:22:47.025Z,61.28
2023-02-04T11:25:49.068Z,61.27
2023-02-04T11:29:00.150Z,61.52
2023-02-04T11:32:07.544Z,58.93
2023-02-04T11:35:12.088Z,59.50
2023-02-04T11:38:27.150Z,60.53
2023-02-04T11:41:30.856Z,61.16
2023-02-04T11:44:33.891Z,60.90
2023-02-04T11:47:36.678Z,62.99
2023-02-04T11:50:39.053Z,60.46
2023-02-04T11:53:41.353Z,63.37
2023-02-04T11:56:43.253Z,63.79
2023-02-04T11:59:45.348Z,60.29
2023-02-04T12:02:59.337Z,61.17
2023-02-04T12:06:01.711Z,61.52
2023-02-04T12:09:09.576Z,57.92
2023-02-04T12:12:11.452Z,59.29
2023-02-04T12:15:24.104Z,57.78
2023-02-04T12:18:29.324Z,56.90
2023-02-04T12:21:31.266Z,58.82
2023-02-04T12:24:33.162Z,57.34
2023-02-04T12:27:35.143Z,56.66
2023-02-04T12:30:37.336Z,56.94
2023-02-04T12:33:39.294Z,55.17
2023-02-04T12:36:41.187Z,55.79
2023-02-04T12:39:43.052Z,54.57
2023-02-04T12:42:45.268Z,54.73
2023-02-04T12:45:49.848Z,55.56
2023-02-04T12:48:52.127Z,55.87
2023-02-04T12:51:58.897Z,54.68
2023-02-04T12:55:01.356Z,54.17
2023-02-04T12:58:03.816Z,54.13
2023-02-04T13:01:06.037Z,54.99
2023-02-04T13:04:08.076Z,55.92
2023-02-04T13:07:10.384Z,55.44
2023-02-04T13:10:13.591Z,56.65
2023-02-04T13:13:15.422Z,57.14
2023-02-04T13:16:19.472Z,56.09
2023-02-04T13:19:24.975Z,55.21
2023-02-04T13:22:27.397Z,56.14
2023-02-04T13:25:29.418Z,54.50
2023-02-04T13:28:31.369Z,55.84
2023-02-04T13:31:33.285Z,55.02
2023-02-04T13:34:35.324Z,54.61
2023-02-04T13:37:38.334Z,54.38
2023-02-04T13:40:40.352Z,53.99
2023-02-04T13:43:42.456Z,53.15
2023-02-04T13:46:44.366Z,54.52
2023-02-04T13:49:46.327Z,54.77
2023-02-04T13:52:48.146Z,55.16
2023-02-04T13:55:50.042Z,55.20
2023-02-04T13:58:51.994Z,54.85
2023-02-04T14:01:54.004Z,55.11
2023-02-04T14:04:57.708Z,55.84
2023-02-04T14:07:59.883Z,55.94
2023-02-04T14:11:01.866Z,57.38
2023-02-04T14:14:03.869Z,56.27
2023-02-04T14:17:05.768Z,56.26
2023-02-04T14:20:08.470Z,57.61
2023-02-04T14:23:11.982Z,56.40
2023-02-04T14:26:13.894Z,57.29
2023-02-04T14:29:16.618Z,57.05
2023-02-04T14:32:18.480Z,59.93
2023-02-04T14:35:20.802Z,62.28
2023-02-04T14:38:22.893Z,63.90
2023-02-04T14:41:26.426Z,64.24
2023-02-04T14:44:28.399Z,66.31
2023-02-04T14:47:30.360Z,68.42
2023-02-04T14:50:33.348Z,69.25
2023-02-04T14:53:35.413Z,68.96
2023-02-04T14:56:37.495Z,69.97
2023-02-04T14:59:39.782Z,70.58
2023-02-04T15:02:42.579Z,70.16
2023-02-04T15:05:44.750Z,71.11
2023-02-04T15:08:46.599Z,73.28
2023-02-04T15:11:48.397Z,74.45
2023-02-04T15:14:50.250Z,75.61
2023-02-04T15:18:24.385Z,75.37
2023-02-04T15:21:27.395Z,74.81
2023-02-04T15:24:30.117Z,72.95
2023-02-04T15:27:32.051Z,71.82
2023-02-04T15:30:34.445Z,71.54
2023-02-04T15:33:36.671Z,67.06
2023-02-04T15:36:38.697Z,63.74
2023-02-04T15:39:40.640Z,61.36
2023-02-04T15:42:43.059Z,58.76
2023-02-04T15:45:45.008Z,60.20
2023-02-04T15:48:47.098Z,61.36
2023-02-04T15:51:49.296Z,61.20
2023-02-04T15:54:51.667Z,59.84
2023-02-04T15:57:53.537Z,60.24
2023-02-04T16:00:55.494Z,58.84
2023-02-04T16:04:26.014Z,59.82
2023-02-04T16:07:27.891Z,58.78
2023-02-04T16:10:30.483Z,58.85
2023-02-04T16:13:32.840Z,56.92
2023-02-04T16:16:34.778Z,57.96
2023-02-04T16:19:36.719Z,56.10
2023-02-04T16:22:38.577Z,55.37
2023-02-04T16:25:40.560Z,57.00
2023-02-04T16:28:42.542Z,57.55
2023-02-04T16:31:44.710Z,57.52
2023-02-04T16:34:46.664Z,58.44
2023-02-04T16:37:48.502Z,59.39
2023-02-04T16:40:50.586Z,57.33
2023-02-04T16:43:52.627Z,57.73
2023-02-04T16:46:55.082Z,58.64
2023-02-04T16:50:00.870Z,58.41
2023-02-04T16:53:03.442Z,58.00
2023-02-04T16:56:05.681Z,59.66
2023-02-04T16:59:07.655Z,57.54
2023-02-04T17:02:10.714Z,56.45
2023-02-04T17:05:12.952Z,56.71
2023-02-04T17:08:15.229Z,56.49
2023-02-04T17:11:29.143Z,56.60
2023-02-04T17:14:31.871Z,55.63
2023-02-04T17:17:33.878Z,56.27
2023-02-04T17:20:36.515Z,55.62
2023-02-04T17:23:38.523Z,56.95
2023-02-04T17:26:40.500Z,57.32
2023-02-04T17:29:42.598Z,57.58
2023-02-04T17:32:45.597Z,58.32
2023-02-04T17:35:47.548Z,58.48
2023-02-04T17:38:50.302Z,59.01
2023-02-04T17:41:52.745Z,58.55
2023-02-04T17:44:56.666Z,58.07
2023-02-04T17:47:58.811Z,58.85
2023-02-04T17:51:00.988Z,58.02
2023-02-04T17:54:03.072Z,57.96
2023-02-04T17:57:18.101Z,57.51
2023-02-04T18:00:23.028Z,57.13
2023-02-04T18:03:28.333Z,57.67
2023-02-04T18:06:30.654Z,58.55
2023-02-04T18:09:32.816Z,58.12
2023-02-04T18:12:35.276Z,58.40
2023-02-04T18:15:37.649Z,59.33
2023-02-04T18:18:41.027Z,59.43
2023-02-04T18:21:43.522Z,59.32
2023-02-04T18:24:48.850Z,58.59
2023-02-04T18:27:52.518Z,58.53
2023-02-04T18:31:00.249Z,59.35
2023-02-04T18:34:34.090Z,58.54
2023-02-04T18:37:42.637Z,58.70
2023-02-04T18:40:44.558Z,58.50
2023-02-04T18:43:51.261Z,59.50
2023-02-04T18:46:54.394Z,59.28
2023-02-04T18:49:56.602Z,59.68
2023-02-04T18:53:19.610Z,59.99
2023-02-04T18:56:21.836Z,60.57
2023-02-04T18:59:28.078Z,61.97
2023-02-04T19:02:39.489Z,63.89
2023-02-04T19:05:50.946Z,63.89
2023-02-04T19:08:59.518Z,66.63
2023-02-04T19:12:19.558Z,66.66
2023-02-04T19:15:37.173Z,68.36
2023-02-04T19:18:42.659Z,69.75
2023-02-04T19:21:45.515Z,72.30
2023-02-04T19:24:48.626Z,74.06
2023-02-04T19:27:57.221Z,71.52
2023-02-04T19:31:04.779Z,67.96
2023-02-04T19:34:23.457Z,68.79
2023-02-04T19:37:46.832Z,69.12
2023-02-04T19:40:51.383Z,66.78
2023-02-04T19:44:35.246Z,66.06
2023-02-04T19:47:42.296Z,65.43
2023-02-04T19:50:44.705Z,65.63
2023-02-04T19:53:53.961Z,66.14
2023-02-04T19:56:56.137Z,66.84
2023-02-04T19:59:58.501Z,65.55
2023-02-04T20:03:01.562Z,66.20
2023-02-04T20:06:09.646Z,66.14
2023-02-04T20:09:29.116Z,66.62
2023-02-04T20:12:33.194Z,67.18
2023-02-04T20:15:35.501Z,67.46
2023-02-04T20:18:37.710Z,67.29
2023-02-04T20:21:39.918Z,66.67
2023-02-04T20:24:43.159Z,66.87
2023-02-04T20:27:46.755Z,67.46
2023-02-04T20:30:50.604Z,66.99
2023-02-04T20:33:59.871Z,66.54
2023-02-04T20:37:01.758Z,67.96
2023-02-04T20:40:21.060Z,67.82
2023-02-04T20:43:24.234Z,68.13
2023-02-04T20:46:26.668Z,66.30
2023-02-04T20:49:28.831Z,66.47
2023-02-04T20:52:40.112Z,66.25
2023-02-04T20:55:48.796Z,66.37
2023-02-04T20:58:55.724Z,65.74
2023-02-04T21:01:58.150Z,66.22
2023-02-04T21:05:01.944Z,65.88
2023-02-04T21:08:21.409Z,66.43
2023-02-04T21:11:24.601Z,67.61
2023-02-04T21:14:28.132Z,67.65
2023-02-04T21:17:30.128Z,68.23
2023-02-04T21:20:34.674Z,67.09
2023-02-04T21:23:37.151Z,66.93
2023-02-04T21:26:39.669Z,66.98
2023-02-04T21:29:41.531Z,65.38
2023-02-04T21:32:44.434Z,65.13
2023-02-04T21:35:46.391Z,66.32
2023-02-04T21:38:48.240Z,66.64
2023-02-04T21:42:10.293Z,66.93
2023-02-04T21:45:12.464Z,65.93
2023-02-04T21:48:14.884Z,66.05
2023-02-04T21:51:16.787Z,65.47
2023-02-04T21:54:18.952Z,65.39
2023-02-04T21:57:20.831Z,63.70
2023-02-04T22:00:23.889Z,62.81
2023-02-04T22:03:25.796Z,61.89
2023-02-04T22:06:27.769Z,63.02
2023-02-04T22:09:29.706Z,62.63
2023-02-04T22:12:32.203Z,62.03
2023-02-04T22:15:34.360Z,62.31
2023-02-04T22:18:36.750Z,62.63
2023-02-04T22:21:38.662Z,62.29
2023-02-04T22:24:40.667Z,62.58
2023-02-04T22:27:42.693Z,62.55
2023-02-04T22:30:46.873Z,62.32
2023-02-04T22:33:48.870Z,62.76
2023-02-04T22:36:50.717Z,63.39
2023-02-04T22:39:52.929Z,63.48
2023-02-04T22:42:54.867Z,63.25
2023-02-04T22:45:56.789Z,62.48
2023-02-04T22:48:58.763Z,63.24
2023-02-04T22:52:00.854Z,62.73
2023-02-04T22:55:02.757Z,62.69
2023-02-04T22:58:04.661Z,62.65
2023-02-04T23:01:07.203Z,61.62
2023-02-04T23:04:09.053Z,61.89
2023-02-04T23:07:12.297Z,62.21
2023-02-04T23:10:14.326Z,61.88
2023-02-04T23:13:17.062Z,62.27
2023-02-04T23:16:19.588Z,61.50
2023-02-04T23:19:21.938Z,61.42
2023-02-04T23:22:23.893Z,62.09
2023-02-04T23:25:25.906Z,60.60
2023-02-04T23:28:28.194Z,61.91
2023-02-04T23:31:30.034Z,62.07
2023-02-04T23:34:31.969Z,62.32
2023-02-04T23:37:34.271Z,61.24
2023-02-04T23:40:36.442Z,63.30
2023-02-04T23:43:38.367Z,62.38
2023-02-04T23:46:40.672Z,63.27
2023-02-04T23:49:42.759Z,63.04
2023-02-04T23:52:44.813Z,62.69
2023-02-04T23:55:46.746Z,62.12
2023-02-04T23:58:48.733Z,62.83
